sensor_id;sensor_type;location;lat;lon;timestamp;P1;durP1;ratioP1;P2;durP2;ratioP2
78732;SDS011;68056;52.530;5.454;2024-03-02T00:00:18;1.42;;;0.77;;
78732;SDS011;68056;52.530;5.454;2024-03-02T00:02:46;1.33;;;0.80;;
78732;SDS011;68056;52.530;5.454;2024-03-02T00:05:19;2.10;;;0.88;;
78732;SDS011;68056;52.530;5.454;2024-03-02T00:07:47;1.35;;;0.80;;
78732;SDS011;68056;52.530;5.454;2024-03-02T00:10:20;1.45;;;0.68;;
78732;SDS011;68056;52.530;5.454;2024-03-02T00:12:53;0.77;;;0.77;;
78732;SDS011;68056;52.530;5.454;2024-03-02T00:15:27;1.80;;;0.80;;
78732;SDS011;68056;52.530;5.454;2024-03-02T00:18:12;1.15;;;0.80;;
78732;SDS011;68056;52.530;5.454;2024-03-02T00:20:43;1.42;;;0.95;;
78732;SDS011;68056;52.530;5.454;2024-03-02T00:23:10;1.83;;;0.90;;
78732;SDS011;68056;52.530;5.454;2024-03-02T00:25:43;1.85;;;0.90;;
78732;SDS011;68056;52.530;5.454;2024-03-02T00:28:19;1.77;;;0.70;;
78732;SDS011;68056;52.530;5.454;2024-03-02T00:30:51;1.85;;;0.80;;
78732;SDS011;68056;52.530;5.454;2024-03-02T00:33:19;1.50;;;0.73;;
78732;SDS011;68056;52.530;5.454;2024-03-02T00:35:46;1.42;;;0.55;;
78732;SDS011;68056;52.530;5.454;2024-03-02T00:38:11;1.15;;;0.68;;
78732;SDS011;68056;52.530;5.454;2024-03-02T00:40:40;2.05;;;0.70;;
78732;SDS011;68056;52.530;5.454;2024-03-02T00:43:10;1.40;;;0.70;;
78732;SDS011;68056;52.530;5.454;2024-03-02T00:45:54;1.05;;;0.50;;
78732;SDS011;68056;52.530;5.454;2024-03-02T00:48:20;0.80;;;0.50;;
78732;SDS011;68056;52.530;5.454;2024-03-02T00:50:45;1.58;;;0.77;;
78732;SDS011;68056;52.530;5.454;2024-03-02T00:53:11;0.85;;;0.63;;
78732;SDS011;68056;52.530;5.454;2024-03-02T00:55:37;0.73;;;0.50;;
78732;SDS011;68056;52.530;5.454;2024-03-02T00:58:09;1.92;;;0.70;;
78732;SDS011;68056;52.530;5.454;2024-03-02T01:00:35;1.42;;;0.85;;
78732;SDS011;68056;52.530;5.454;2024-03-02T01:03:00;1.27;;;0.60;;
78732;SDS011;68056;52.530;5.454;2024-03-02T01:05:26;2.28;;;0.80;;
78732;SDS011;68056;52.530;5.454;2024-03-02T01:07:54;1.00;;;0.70;;
78732;SDS011;68056;52.530;5.454;2024-03-02T01:10:20;1.05;;;0.60;;
78732;SDS011;68056;52.530;5.454;2024-03-02T01:12:46;2.72;;;0.88;;
78732;SDS011;68056;52.530;5.454;2024-03-02T01:15:11;1.77;;;0.60;;
78732;SDS011;68056;52.530;5.454;2024-03-02T01:17:37;1.83;;;0.80;;
78732;SDS011;68056;52.530;5.454;2024-03-02T01:20:03;1.13;;;0.75;;
78732;SDS011;68056;52.530;5.454;2024-03-02T01:22:29;1.10;;;0.63;;
78732;SDS011;68056;52.530;5.454;2024-03-02T01:24:55;1.42;;;0.70;;
78732;SDS011;68056;52.530;5.454;2024-03-02T01:27:20;1.65;;;0.77;;
78732;SDS011;68056;52.530;5.454;2024-03-02T01:29:46;2.05;;;0.80;;
78732;SDS011;68056;52.530;5.454;2024-03-02T01:32:11;1.58;;;0.50;;
78732;SDS011;68056;52.530;5.454;2024-03-02T01:34:37;0.40;;;0.38;;
78732;SDS011;68056;52.530;5.454;2024-03-02T01:37:03;1.17;;;0.47;;
78732;SDS011;68056;52.530;5.454;2024-03-02T01:39:28;0.75;;;0.55;;
78732;SDS011;68056;52.530;5.454;2024-03-02T01:41:54;0.80;;;0.60;;
78732;SDS011;68056;52.530;5.454;2024-03-02T01:44:20;0.90;;;0.50;;
78732;SDS011;68056;52.530;5.454;2024-03-02T01:46:45;1.02;;;0.40;;
78732;SDS011;68056;52.530;5.454;2024-03-02T01:49:11;0.60;;;0.40;;
78732;SDS011;68056;52.530;5.454;2024-03-02T01:51:36;0.30;;;0.30;;
78732;SDS011;68056;52.530;5.454;2024-03-02T01:54:02;0.20;;;0.20;;
78732;SDS011;68056;52.530;5.454;2024-03-02T01:56:28;0.43;;;0.32;;
78732;SDS011;68056;52.530;5.454;2024-03-02T01:58:53;0.10;;;0.10;;
78732;SDS011;68056;52.530;5.454;2024-03-02T02:01:19;0.57;;;0.30;;
78732;SDS011;68056;52.530;5.454;2024-03-02T02:03:45;0.40;;;0.32;;
78732;SDS011;68056;52.530;5.454;2024-03-02T02:06:10;1.02;;;0.30;;
78732;SDS011;68056;52.530;5.454;2024-03-02T02:08:39;0.20;;;0.10;;
78732;SDS011;68056;52.530;5.454;2024-03-02T02:11:04;0.30;;;0.20;;
78732;SDS011;68056;52.530;5.454;2024-03-02T02:13:30;0.65;;;0.20;;
78732;SDS011;68056;52.530;5.454;2024-03-02T02:15:59;0.30;;;0.30;;
78732;SDS011;68056;52.530;5.454;2024-03-02T02:18:30;0.30;;;0.28;;
78732;SDS011;68056;52.530;5.454;2024-03-02T02:20:55;0.30;;;0.20;;
78732;SDS011;68056;52.530;5.454;2024-03-02T02:23:21;0.38;;;0.20;;
78732;SDS011;68056;52.530;5.454;2024-03-02T02:25:46;0.32;;;0.25;;
78732;SDS011;68056;52.530;5.454;2024-03-02T02:28:12;0.28;;;0.20;;
78732;SDS011;68056;52.530;5.454;2024-03-02T02:30:37;0.30;;;0.30;;
78732;SDS011;68056;52.530;5.454;2024-03-02T02:33:03;0.88;;;0.20;;
78732;SDS011;68056;52.530;5.454;2024-03-02T02:35:29;0.50;;;0.20;;
78732;SDS011;68056;52.530;5.454;2024-03-02T02:37:55;0.32;;;0.22;;
78732;SDS011;68056;52.530;5.454;2024-03-02T02:40:21;0.68;;;0.20;;
78732;SDS011;68056;52.530;5.454;2024-03-02T02:42:47;0.15;;;0.10;;
78732;SDS011;68056;52.530;5.454;2024-03-02T02:45:13;0.85;;;0.30;;
78732;SDS011;68056;52.530;5.454;2024-03-02T02:47:40;0.20;;;0.20;;
78732;SDS011;68056;52.530;5.454;2024-03-02T02:50:09;0.82;;;0.10;;
78732;SDS011;68056;52.530;5.454;2024-03-02T02:52:37;0.45;;;0.20;;
78732;SDS011;68056;52.530;5.454;2024-03-02T02:55:05;0.43;;;0.15;;
78732;SDS011;68056;52.530;5.454;2024-03-02T02:57:36;0.30;;;0.10;;
78732;SDS011;68056;52.530;5.454;2024-03-02T03:02:39;0.80;;;0.20;;
78732;SDS011;68056;52.530;5.454;2024-03-02T03:05:09;0.15;;;0.05;;
78732;SDS011;68056;52.530;5.454;2024-03-02T03:07:36;0.25;;;0.22;;
78732;SDS011;68056;52.530;5.454;2024-03-02T03:10:02;0.25;;;0.20;;
78732;SDS011;68056;52.530;5.454;2024-03-02T03:12:29;0.30;;;0.20;;
78732;SDS011;68056;52.530;5.454;2024-03-02T03:14:56;0.10;;;0.10;;
78732;SDS011;68056;52.530;5.454;2024-03-02T03:17:22;0.10;;;0.10;;
78732;SDS011;68056;52.530;5.454;2024-03-02T03:19:48;0.32;;;0.20;;
78732;SDS011;68056;52.530;5.454;2024-03-02T03:22:20;0.75;;;0.30;;
78732;SDS011;68056;52.530;5.454;2024-03-02T03:24:45;0.22;;;0.20;;
78732;SDS011;68056;52.530;5.454;2024-03-02T03:27:11;0.20;;;0.10;;
78732;SDS011;68056;52.530;5.454;2024-03-02T03:29:36;0.20;;;0.20;;
78732;SDS011;68056;52.530;5.454;2024-03-02T03:32:02;0.70;;;0.30;;
78732;SDS011;68056;52.530;5.454;2024-03-02T03:34:29;0.28;;;0.22;;
78732;SDS011;68056;52.530;5.454;2024-03-02T03:36:57;0.57;;;0.15;;
78732;SDS011;68056;52.530;5.454;2024-03-02T03:39:23;0.10;;;0.10;;
78732;SDS011;68056;52.530;5.454;2024-03-02T03:41:48;1.00;;;0.28;;
78732;SDS011;68056;52.530;5.454;2024-03-02T03:44:14;0.10;;;0.10;;
78732;SDS011;68056;52.530;5.454;2024-03-02T03:46:40;0.17;;;0.17;;
78732;SDS011;68056;52.530;5.454;2024-03-02T03:49:05;0.20;;;0.20;;
78732;SDS011;68056;52.530;5.454;2024-03-02T03:51:31;0.10;;;0.10;;
78732;SDS011;68056;52.530;5.454;2024-03-02T03:53:56;0.75;;;0.40;;
78732;SDS011;68056;52.530;5.454;2024-03-02T03:56:22;0.47;;;0.30;;
78732;SDS011;68056;52.530;5.454;2024-03-02T03:58:47;0.60;;;0.35;;
78732;SDS011;68056;52.530;5.454;2024-03-02T04:01:13;0.57;;;0.30;;
78732;SDS011;68056;52.530;5.454;2024-03-02T04:03:39;0.40;;;0.15;;
78732;SDS011;68056;52.530;5.454;2024-03-02T04:06:04;0.40;;;0.30;;
78732;SDS011;68056;52.530;5.454;2024-03-02T04:08:30;0.68;;;0.28;;
78732;SDS011;68056;52.530;5.454;2024-03-02T04:10:55;0.22;;;0.20;;
78732;SDS011;68056;52.530;5.454;2024-03-02T04:13:21;0.45;;;0.20;;
78732;SDS011;68056;52.530;5.454;2024-03-02T04:15:47;0.40;;;0.20;;
78732;SDS011;68056;52.530;5.454;2024-03-02T04:18:12;0.45;;;0.20;;
78732;SDS011;68056;52.530;5.454;2024-03-02T04:20:38;1.08;;;0.20;;
78732;SDS011;68056;52.530;5.454;2024-03-02T04:23:03;0.95;;;0.30;;
78732;SDS011;68056;52.530;5.454;2024-03-02T04:25:29;0.60;;;0.20;;
78732;SDS011;68056;52.530;5.454;2024-03-02T04:27:55;0.20;;;0.20;;
78732;SDS011;68056;52.530;5.454;2024-03-02T04:30:20;0.40;;;0.20;;
78732;SDS011;68056;52.530;5.454;2024-03-02T04:32:46;1.75;;;0.22;;
78732;SDS011;68056;52.530;5.454;2024-03-02T04:35:12;0.30;;;0.20;;
78732;SDS011;68056;52.530;5.454;2024-03-02T04:37:38;0.28;;;0.28;;
78732;SDS011;68056;52.530;5.454;2024-03-02T04:40:04;0.30;;;0.20;;
78732;SDS011;68056;52.530;5.454;2024-03-02T04:42:33;0.40;;;0.20;;
78732;SDS011;68056;52.530;5.454;2024-03-02T04:44:59;0.40;;;0.20;;
78732;SDS011;68056;52.530;5.454;2024-03-02T04:47:25;0.75;;;0.20;;
78732;SDS011;68056;52.530;5.454;2024-03-02T04:49:50;0.10;;;0.10;;
78732;SDS011;68056;52.530;5.454;2024-03-02T04:52:16;1.95;;;0.40;;
78732;SDS011;68056;52.530;5.454;2024-03-02T04:54:42;2.05;;;0.88;;
78732;SDS011;68056;52.530;5.454;2024-03-02T04:57:26;0.22;;;0.10;;
78732;SDS011;68056;52.530;5.454;2024-03-02T04:59:52;2.10;;;0.50;;
78732;SDS011;68056;52.530;5.454;2024-03-02T05:02:18;0.20;;;0.20;;
78732;SDS011;68056;52.530;5.454;2024-03-02T05:04:43;0.40;;;0.20;;
78732;SDS011;68056;52.530;5.454;2024-03-02T05:07:09;1.48;;;0.32;;
78732;SDS011;68056;52.530;5.454;2024-03-02T05:09:35;0.20;;;0.20;;
78732;SDS011;68056;52.530;5.454;2024-03-02T05:12:00;0.65;;;0.30;;
78732;SDS011;68056;52.530;5.454;2024-03-02T05:14:45;0.28;;;0.20;;
78732;SDS011;68056;52.530;5.454;2024-03-02T05:17:11;0.45;;;0.20;;
78732;SDS011;68056;52.530;5.454;2024-03-02T05:19:36;0.45;;;0.10;;
78732;SDS011;68056;52.530;5.454;2024-03-02T05:22:03;0.63;;;0.20;;
78732;SDS011;68056;52.530;5.454;2024-03-02T05:24:28;0.17;;;0.17;;
78732;SDS011;68056;52.530;5.454;2024-03-02T05:26:54;0.65;;;0.38;;
78732;SDS011;68056;52.530;5.454;2024-03-02T05:29:20;2.03;;;0.40;;
78732;SDS011;68056;52.530;5.454;2024-03-02T05:31:46;0.20;;;0.20;;
78732;SDS011;68056;52.530;5.454;2024-03-02T05:34:11;0.40;;;0.30;;
78732;SDS011;68056;52.530;5.454;2024-03-02T05:36:37;1.35;;;0.35;;
78732;SDS011;68056;52.530;5.454;2024-03-02T05:39:04;2.20;;;0.40;;
78732;SDS011;68056;52.530;5.454;2024-03-02T05:41:31;0.50;;;0.30;;
78732;SDS011;68056;52.530;5.454;2024-03-02T05:43:56;0.73;;;0.32;;
78732;SDS011;68056;52.530;5.454;2024-03-02T05:46:22;1.58;;;0.50;;
78732;SDS011;68056;52.530;5.454;2024-03-02T05:48:47;0.55;;;0.30;;
78732;SDS011;68056;52.530;5.454;2024-03-02T05:51:13;0.40;;;0.25;;
78732;SDS011;68056;52.530;5.454;2024-03-02T05:53:38;0.30;;;0.20;;
78732;SDS011;68056;52.530;5.454;2024-03-02T05:56:04;0.30;;;0.20;;
78732;SDS011;68056;52.530;5.454;2024-03-02T05:58:31;0.57;;;0.30;;
78732;SDS011;68056;52.530;5.454;2024-03-02T06:03:43;0.30;;;0.22;;
78732;SDS011;68056;52.530;5.454;2024-03-02T06:06:09;1.30;;;0.47;;
78732;SDS011;68056;52.530;5.454;2024-03-02T06:08:35;0.90;;;0.20;;
78732;SDS011;68056;52.530;5.454;2024-03-02T06:11:04;0.60;;;0.40;;
78732;SDS011;68056;52.530;5.454;2024-03-02T06:13:29;1.00;;;0.30;;
78732;SDS011;68056;52.530;5.454;2024-03-02T06:15:55;0.65;;;0.20;;
78732;SDS011;68056;52.530;5.454;2024-03-02T06:18:20;0.22;;;0.20;;
78732;SDS011;68056;52.530;5.454;2024-03-02T06:20:46;1.35;;;0.40;;
78732;SDS011;68056;52.530;5.454;2024-03-02T06:23:11;1.27;;;0.30;;
78732;SDS011;68056;52.530;5.454;2024-03-02T06:25:37;0.70;;;0.17;;
78732;SDS011;68056;52.530;5.454;2024-03-02T06:28:03;0.85;;;0.40;;
78732;SDS011;68056;52.530;5.454;2024-03-02T06:30:29;0.20;;;0.20;;
78732;SDS011;68056;52.530;5.454;2024-03-02T06:32:54;0.82;;;0.20;;
78732;SDS011;68056;52.530;5.454;2024-03-02T06:35:20;0.20;;;0.20;;
78732;SDS011;68056;52.530;5.454;2024-03-02T06:37:46;0.40;;;0.25;;
78732;SDS011;68056;52.530;5.454;2024-03-02T06:40:11;0.60;;;0.20;;
78732;SDS011;68056;52.530;5.454;2024-03-02T06:42:37;1.17;;;0.63;;
78732;SDS011;68056;52.530;5.454;2024-03-02T06:45:02;2.33;;;0.55;;
78732;SDS011;68056;52.530;5.454;2024-03-02T06:47:28;1.08;;;0.38;;
78732;SDS011;68056;52.530;5.454;2024-03-02T06:49:55;0.52;;;0.28;;
78732;SDS011;68056;52.530;5.454;2024-03-02T06:52:22;0.55;;;0.40;;
78732;SDS011;68056;52.530;5.454;2024-03-02T06:54:47;0.82;;;0.22;;
78732;SDS011;68056;52.530;5.454;2024-03-02T06:57:13;2.13;;;0.22;;
78732;SDS011;68056;52.530;5.454;2024-03-02T06:59:39;1.40;;;0.30;;
78732;SDS011;68056;52.530;5.454;2024-03-02T07:02:04;0.28;;;0.17;;
78732;SDS011;68056;52.530;5.454;2024-03-02T07:04:30;1.75;;;0.30;;
78732;SDS011;68056;52.530;5.454;2024-03-02T07:06:58;0.95;;;0.30;;
78732;SDS011;68056;52.530;5.454;2024-03-02T07:09:24;2.17;;;0.30;;
78732;SDS011;68056;52.530;5.454;2024-03-02T07:11:49;3.25;;;0.47;;
78732;SDS011;68056;52.530;5.454;2024-03-02T07:14:15;1.65;;;0.38;;
78732;SDS011;68056;52.530;5.454;2024-03-02T07:16:41;0.57;;;0.30;;
78732;SDS011;68056;52.530;5.454;2024-03-02T07:19:08;0.80;;;0.30;;
78732;SDS011;68056;52.530;5.454;2024-03-02T07:21:33;2.00;;;0.32;;
78732;SDS011;68056;52.530;5.454;2024-03-02T07:23:59;1.35;;;0.50;;
78732;SDS011;68056;52.530;5.454;2024-03-02T07:26:27;0.98;;;0.40;;
78732;SDS011;68056;52.530;5.454;2024-03-02T07:28:55;0.68;;;0.20;;
78732;SDS011;68056;52.530;5.454;2024-03-02T07:31:28;0.65;;;0.20;;
78732;SDS011;68056;52.530;5.454;2024-03-02T07:33:53;1.77;;;0.85;;
78732;SDS011;68056;52.530;5.454;2024-03-02T07:36:19;0.40;;;0.30;;
78732;SDS011;68056;52.530;5.454;2024-03-02T07:38:44;0.90;;;0.38;;
78732;SDS011;68056;52.530;5.454;2024-03-02T07:41:10;1.42;;;0.32;;
78732;SDS011;68056;52.530;5.454;2024-03-02T07:43:36;0.82;;;0.50;;
78732;SDS011;68056;52.530;5.454;2024-03-02T07:46:02;0.38;;;0.32;;
78732;SDS011;68056;52.530;5.454;2024-03-02T07:48:28;1.48;;;0.40;;
78732;SDS011;68056;52.530;5.454;2024-03-02T07:50:54;0.82;;;0.43;;
78732;SDS011;68056;52.530;5.454;2024-03-02T07:53:19;0.73;;;0.40;;
78732;SDS011;68056;52.530;5.454;2024-03-02T07:55:45;0.63;;;0.30;;
78732;SDS011;68056;52.530;5.454;2024-03-02T07:58:10;0.50;;;0.30;;
78732;SDS011;68056;52.530;5.454;2024-03-02T08:00:38;0.30;;;0.20;;
78732;SDS011;68056;52.530;5.454;2024-03-02T08:03:04;1.38;;;0.30;;
78732;SDS011;68056;52.530;5.454;2024-03-02T08:05:31;1.75;;;0.57;;
78732;SDS011;68056;52.530;5.454;2024-03-02T08:07:57;4.05;;;0.68;;
78732;SDS011;68056;52.530;5.454;2024-03-02T08:10:22;1.20;;;0.40;;
78732;SDS011;68056;52.530;5.454;2024-03-02T08:12:48;0.30;;;0.20;;
78732;SDS011;68056;52.530;5.454;2024-03-02T08:15:13;1.08;;;0.30;;
78732;SDS011;68056;52.530;5.454;2024-03-02T08:17:39;0.32;;;0.20;;
78732;SDS011;68056;52.530;5.454;2024-03-02T08:20:13;1.10;;;0.50;;
78732;SDS011;68056;52.530;5.454;2024-03-02T08:22:48;0.40;;;0.30;;
78732;SDS011;68056;52.530;5.454;2024-03-02T08:25:13;0.73;;;0.30;;
78732;SDS011;68056;52.530;5.454;2024-03-02T08:27:40;0.75;;;0.45;;
78732;SDS011;68056;52.530;5.454;2024-03-02T08:30:06;1.08;;;0.30;;
78732;SDS011;68056;52.530;5.454;2024-03-02T08:32:33;0.70;;;0.40;;
78732;SDS011;68056;52.530;5.454;2024-03-02T08:34:59;0.73;;;0.60;;
78732;SDS011;68056;52.530;5.454;2024-03-02T08:37:24;0.40;;;0.40;;
78732;SDS011;68056;52.530;5.454;2024-03-02T08:39:50;2.35;;;0.40;;
78732;SDS011;68056;52.530;5.454;2024-03-02T08:42:16;4.13;;;0.45;;
78732;SDS011;68056;52.530;5.454;2024-03-02T08:44:42;0.68;;;0.30;;
78732;SDS011;68056;52.530;5.454;2024-03-02T08:47:08;1.00;;;0.50;;
78732;SDS011;68056;52.530;5.454;2024-03-02T08:49:33;1.00;;;0.50;;
78732;SDS011;68056;52.530;5.454;2024-03-02T08:52:00;0.63;;;0.20;;
78732;SDS011;68056;52.530;5.454;2024-03-02T08:54:25;2.15;;;0.40;;
78732;SDS011;68056;52.530;5.454;2024-03-02T08:56:51;0.63;;;0.20;;
78732;SDS011;68056;52.530;5.454;2024-03-02T08:59:17;1.10;;;0.30;;
78732;SDS011;68056;52.530;5.454;2024-03-02T09:01:43;1.63;;;0.40;;
78732;SDS011;68056;52.530;5.454;2024-03-02T09:04:10;0.55;;;0.20;;
78732;SDS011;68056;52.530;5.454;2024-03-02T09:06:35;1.13;;;0.20;;
78732;SDS011;68056;52.530;5.454;2024-03-02T09:09:01;0.57;;;0.32;;
78732;SDS011;68056;52.530;5.454;2024-03-02T09:11:29;2.50;;;0.50;;
78732;SDS011;68056;52.530;5.454;2024-03-02T09:13:55;3.00;;;0.30;;
78732;SDS011;68056;52.530;5.454;2024-03-02T09:16:22;1.13;;;0.30;;
78732;SDS011;68056;52.530;5.454;2024-03-02T09:18:49;0.98;;;0.32;;
78732;SDS011;68056;52.530;5.454;2024-03-02T09:21:15;1.50;;;0.40;;
78732;SDS011;68056;52.530;5.454;2024-03-02T09:23:40;0.52;;;0.20;;
78732;SDS011;68056;52.530;5.454;2024-03-02T09:26:06;1.05;;;0.32;;
78732;SDS011;68056;52.530;5.454;2024-03-02T09:28:32;1.25;;;0.40;;
78732;SDS011;68056;52.530;5.454;2024-03-02T09:30:57;0.85;;;0.30;;
78732;SDS011;68056;52.530;5.454;2024-03-02T09:33:23;1.83;;;0.50;;
78732;SDS011;68056;52.530;5.454;2024-03-02T09:35:48;0.55;;;0.40;;
78732;SDS011;68056;52.530;5.454;2024-03-02T09:38:14;2.03;;;0.80;;
78732;SDS011;68056;52.530;5.454;2024-03-02T09:40:41;1.50;;;0.50;;
78732;SDS011;68056;52.530;5.454;2024-03-02T09:43:07;1.48;;;0.32;;
78732;SDS011;68056;52.530;5.454;2024-03-02T09:45:33;1.63;;;0.32;;
78732;SDS011;68056;52.530;5.454;2024-03-02T09:47:59;4.68;;;0.65;;
78732;SDS011;68056;52.530;5.454;2024-03-02T09:50:25;1.83;;;0.20;;
78732;SDS011;68056;52.530;5.454;2024-03-02T09:52:50;1.05;;;0.47;;
78732;SDS011;68056;52.530;5.454;2024-03-02T09:55:20;0.70;;;0.45;;
78732;SDS011;68056;52.530;5.454;2024-03-02T09:57:46;1.83;;;0.40;;
78732;SDS011;68056;52.530;5.454;2024-03-02T10:00:13;0.98;;;0.40;;
78732;SDS011;68056;52.530;5.454;2024-03-02T10:02:40;1.00;;;0.40;;
78732;SDS011;68056;52.530;5.454;2024-03-02T10:05:07;1.25;;;0.30;;
78732;SDS011;68056;52.530;5.454;2024-03-02T10:07:33;2.33;;;0.38;;
78732;SDS011;68056;52.530;5.454;2024-03-02T10:10:00;1.02;;;0.30;;
78732;SDS011;68056;52.530;5.454;2024-03-02T10:12:40;2.03;;;0.50;;
78732;SDS011;68056;52.530;5.454;2024-03-02T10:15:06;1.15;;;0.40;;
78732;SDS011;68056;52.530;5.454;2024-03-02T10:17:35;2.13;;;0.50;;
78732;SDS011;68056;52.530;5.454;2024-03-02T10:20:20;1.30;;;0.20;;
78732;SDS011;68056;52.530;5.454;2024-03-02T10:22:48;0.50;;;0.28;;
78732;SDS011;68056;52.530;5.454;2024-03-02T10:25:32;1.70;;;0.22;;
78732;SDS011;68056;52.530;5.454;2024-03-02T10:27:59;4.10;;;0.50;;
78732;SDS011;68056;52.530;5.454;2024-03-02T10:30:25;3.13;;;0.47;;
78732;SDS011;68056;52.530;5.454;2024-03-02T10:32:53;1.38;;;0.40;;
78732;SDS011;68056;52.530;5.454;2024-03-02T10:35:20;2.25;;;0.50;;
78732;SDS011;68056;52.530;5.454;2024-03-02T10:37:47;1.08;;;0.40;;
78732;SDS011;68056;52.530;5.454;2024-03-02T10:40:13;1.50;;;0.40;;
78732;SDS011;68056;52.530;5.454;2024-03-02T10:42:39;2.20;;;0.45;;
78732;SDS011;68056;52.530;5.454;2024-03-02T10:45:07;1.98;;;0.57;;
78732;SDS011;68056;52.530;5.454;2024-03-02T10:47:35;2.15;;;0.40;;
78732;SDS011;68056;52.530;5.454;2024-03-02T10:50:02;1.33;;;0.68;;
78732;SDS011;68056;52.530;5.454;2024-03-02T10:52:36;3.13;;;0.60;;
78732;SDS011;68056;52.530;5.454;2024-03-02T10:55:03;3.10;;;0.52;;
78732;SDS011;68056;52.530;5.454;2024-03-02T10:57:33;2.17;;;0.47;;
78732;SDS011;68056;52.530;5.454;2024-03-02T11:00:30;3.10;;;0.60;;
78732;SDS011;68056;52.530;5.454;2024-03-02T11:03:08;1.92;;;0.50;;
78732;SDS011;68056;52.530;5.454;2024-03-02T11:05:36;2.22;;;0.40;;
78732;SDS011;68056;52.530;5.454;2024-03-02T11:08:06;2.00;;;0.38;;
78732;SDS011;68056;52.530;5.454;2024-03-02T11:10:51;2.92;;;0.80;;
78732;SDS011;68056;52.530;5.454;2024-03-02T11:13:27;2.70;;;0.45;;
78732;SDS011;68056;52.530;5.454;2024-03-02T11:15:58;1.52;;;0.40;;
78732;SDS011;68056;52.530;5.454;2024-03-02T11:18:29;2.00;;;0.50;;
78732;SDS011;68056;52.530;5.454;2024-03-02T11:20:56;1.73;;;0.50;;
78732;SDS011;68056;52.530;5.454;2024-03-02T11:23:31;1.45;;;0.30;;
78732;SDS011;68056;52.530;5.454;2024-03-02T11:28:47;1.58;;;0.65;;
78732;SDS011;68056;52.530;5.454;2024-03-02T11:31:12;2.10;;;0.32;;
78732;SDS011;68056;52.530;5.454;2024-03-02T11:33:38;4.60;;;1.40;;
78732;SDS011;68056;52.530;5.454;2024-03-02T11:36:06;3.50;;;0.70;;
78732;SDS011;68056;52.530;5.454;2024-03-02T11:38:32;2.60;;;0.32;;
78732;SDS011;68056;52.530;5.454;2024-03-02T11:40:59;1.83;;;0.57;;
78732;SDS011;68056;52.530;5.454;2024-03-02T11:43:27;0.93;;;0.50;;
78732;SDS011;68056;52.530;5.454;2024-03-02T11:45:59;1.10;;;0.40;;
78732;SDS011;68056;52.530;5.454;2024-03-02T11:48:25;2.33;;;0.50;;
78732;SDS011;68056;52.530;5.454;2024-03-02T11:50:51;5.05;;;0.82;;
78732;SDS011;68056;52.530;5.454;2024-03-02T11:53:18;3.90;;;0.52;;
78732;SDS011;68056;52.530;5.454;2024-03-02T11:55:45;2.53;;;0.38;;
78732;SDS011;68056;52.530;5.454;2024-03-02T11:58:11;2.28;;;0.52;;
78732;SDS011;68056;52.530;5.454;2024-03-02T12:00:38;2.55;;;0.55;;
78732;SDS011;68056;52.530;5.454;2024-03-02T12:03:04;1.10;;;0.50;;
78732;SDS011;68056;52.530;5.454;2024-03-02T12:05:34;1.50;;;0.40;;
78732;SDS011;68056;52.530;5.454;2024-03-02T12:08:04;2.47;;;0.68;;
78732;SDS011;68056;52.530;5.454;2024-03-02T12:10:34;7.53;;;0.73;;
78732;SDS011;68056;52.530;5.454;2024-03-02T12:13:21;3.90;;;0.73;;
78732;SDS011;68056;52.530;5.454;2024-03-02T12:15:46;2.45;;;0.65;;
78732;SDS011;68056;52.530;5.454;2024-03-02T12:18:12;1.13;;;0.47;;
78732;SDS011;68056;52.530;5.454;2024-03-02T12:20:37;3.35;;;0.85;;
78732;SDS011;68056;52.530;5.454;2024-03-02T12:23:04;3.15;;;0.50;;
78732;SDS011;68056;52.530;5.454;2024-03-02T12:25:30;1.33;;;0.50;;
78732;SDS011;68056;52.530;5.454;2024-03-02T12:27:59;1.98;;;0.50;;
78732;SDS011;68056;52.530;5.454;2024-03-02T12:30:26;1.83;;;0.45;;
78732;SDS011;68056;52.530;5.454;2024-03-02T12:32:54;2.47;;;0.52;;
78732;SDS011;68056;52.530;5.454;2024-03-02T12:35:20;1.85;;;0.60;;
78732;SDS011;68056;52.530;5.454;2024-03-02T12:37:49;7.05;;;1.40;;
78732;SDS011;68056;52.530;5.454;2024-03-02T12:40:16;3.30;;;0.85;;
78732;SDS011;68056;52.530;5.454;2024-03-02T12:42:44;1.88;;;0.70;;
78732;SDS011;68056;52.530;5.454;2024-03-02T12:45:11;1.88;;;0.60;;
78732;SDS011;68056;52.530;5.454;2024-03-02T12:47:37;1.00;;;0.52;;
78732;SDS011;68056;52.530;5.454;2024-03-02T12:50:06;0.93;;;0.47;;
78732;SDS011;68056;52.530;5.454;2024-03-02T12:52:32;2.10;;;0.70;;
78732;SDS011;68056;52.530;5.454;2024-03-02T12:55:04;1.45;;;0.55;;
78732;SDS011;68056;52.530;5.454;2024-03-02T12:57:31;2.67;;;1.02;;
78732;SDS011;68056;52.530;5.454;2024-03-02T13:00:01;2.78;;;0.80;;
78732;SDS011;68056;52.530;5.454;2024-03-02T13:02:34;2.95;;;0.60;;
78732;SDS011;68056;52.530;5.454;2024-03-02T13:05:05;1.15;;;0.40;;
78732;SDS011;68056;52.530;5.454;2024-03-02T13:07:36;1.63;;;0.65;;
78732;SDS011;68056;52.530;5.454;2024-03-02T13:10:02;0.55;;;0.40;;
78732;SDS011;68056;52.530;5.454;2024-03-02T13:12:29;2.53;;;0.60;;
78732;SDS011;68056;52.530;5.454;2024-03-02T13:14:57;1.13;;;0.30;;
78732;SDS011;68056;52.530;5.454;2024-03-02T13:17:24;1.05;;;0.40;;
78732;SDS011;68056;52.530;5.454;2024-03-02T13:22:18;1.88;;;0.50;;
78732;SDS011;68056;52.530;5.454;2024-03-02T13:24:44;1.17;;;0.40;;
78732;SDS011;68056;52.530;5.454;2024-03-02T13:27:10;1.65;;;0.45;;
78732;SDS011;68056;52.530;5.454;2024-03-02T13:29:36;1.40;;;0.40;;
78732;SDS011;68056;52.530;5.454;2024-03-02T13:32:02;1.73;;;0.40;;
78732;SDS011;68056;52.530;5.454;2024-03-02T13:34:28;2.05;;;0.45;;
78732;SDS011;68056;52.530;5.454;2024-03-02T13:36:53;0.70;;;0.40;;
78732;SDS011;68056;52.530;5.454;2024-03-02T13:39:19;0.75;;;0.40;;
78732;SDS011;68056;52.530;5.454;2024-03-02T13:41:44;1.65;;;0.30;;
78732;SDS011;68056;52.530;5.454;2024-03-02T13:44:17;0.90;;;0.77;;
78732;SDS011;68056;52.530;5.454;2024-03-02T13:46:44;0.57;;;0.30;;
78732;SDS011;68056;52.530;5.454;2024-03-02T13:49:10;0.17;;;0.17;;
78732;SDS011;68056;52.530;5.454;2024-03-02T13:51:36;1.00;;;0.30;;
78732;SDS011;68056;52.530;5.454;2024-03-02T13:54:02;1.02;;;0.30;;
78732;SDS011;68056;52.530;5.454;2024-03-02T13:56:28;1.73;;;0.30;;
78732;SDS011;68056;52.530;5.454;2024-03-02T13:58:58;0.80;;;0.22;;
78732;SDS011;68056;52.530;5.454;2024-03-02T14:01:25;2.05;;;0.55;;
78732;SDS011;68056;52.530;5.454;2024-03-02T14:03:51;1.27;;;0.50;;
78732;SDS011;68056;52.530;5.454;2024-03-02T14:06:17;1.13;;;0.38;;
78732;SDS011;68056;52.530;5.454;2024-03-02T14:08:42;1.20;;;0.30;;
78732;SDS011;68056;52.530;5.454;2024-03-02T14:11:09;1.00;;;0.70;;
78732;SDS011;68056;52.530;5.454;2024-03-02T14:13:40;2.83;;;0.95;;
78732;SDS011;68056;52.530;5.454;2024-03-02T14:16:12;2.60;;;0.93;;
78732;SDS011;68056;52.530;5.454;2024-03-02T14:18:37;2.47;;;0.52;;
78732;SDS011;68056;52.530;5.454;2024-03-02T14:21:03;2.72;;;0.40;;
78732;SDS011;68056;52.530;5.454;2024-03-02T14:23:29;1.38;;;0.25;;
78732;SDS011;68056;52.530;5.454;2024-03-02T14:25:55;1.23;;;0.30;;
78732;SDS011;68056;52.530;5.454;2024-03-02T14:28:21;2.17;;;0.35;;
78732;SDS011;68056;52.530;5.454;2024-03-02T14:30:46;1.65;;;0.50;;
78732;SDS011;68056;52.530;5.454;2024-03-02T14:33:12;3.13;;;0.52;;
78732;SDS011;68056;52.530;5.454;2024-03-02T14:35:38;0.60;;;0.30;;
78732;SDS011;68056;52.530;5.454;2024-03-02T14:38:04;0.65;;;0.30;;
78732;SDS011;68056;52.530;5.454;2024-03-02T14:40:30;1.27;;;0.30;;
78732;SDS011;68056;52.530;5.454;2024-03-02T14:42:55;0.25;;;0.20;;
78732;SDS011;68056;52.530;5.454;2024-03-02T14:45:21;0.47;;;0.25;;
78732;SDS011;68056;52.530;5.454;2024-03-02T14:47:47;1.70;;;0.30;;
78732;SDS011;68056;52.530;5.454;2024-03-02T14:50:12;1.98;;;0.50;;
78732;SDS011;68056;52.530;5.454;2024-03-02T14:52:40;0.70;;;0.50;;
78732;SDS011;68056;52.530;5.454;2024-03-02T14:55:06;0.80;;;0.45;;
78732;SDS011;68056;52.530;5.454;2024-03-02T14:57:32;2.05;;;0.35;;